sensor_id;sensor_type;location;lat;lon;timestamp;temperature;humidity
3846;DHT22;1938;50.812;7.738;2024-03-17T00:00:41;4.60;1.00
3846;DHT22;1938;50.812;7.738;2024-03-17T00:03:08;4.60;1.00
3846;DHT22;1938;50.812;7.738;2024-03-17T00:05:38;4.60;1.00
3846;DHT22;1938;50.812;7.738;2024-03-17T00:08:04;4.50;1.00
3846;DHT22;1938;50.812;7.738;2024-03-17T00:10:31;4.50;1.00
3846;DHT22;1938;50.812;7.738;2024-03-17T00:12:58;4.50;1.00
3846;DHT22;1938;50.812;7.738;2024-03-17T00:15:24;4.40;32.30
3846;DHT22;1938;50.812;7.738;2024-03-17T00:17:49;4.40;5.20
3846;DHT22;1938;50.812;7.738;2024-03-17T00:20:15;4.30;12.10
3846;DHT22;1938;50.812;7.738;2024-03-17T00:22:47;4.30;1.00
3846;DHT22;1938;50.812;7.738;2024-03-17T00:25:13;4.30;3.20
3846;DHT22;1938;50.812;7.738;2024-03-17T00:27:39;4.30;15.00
3846;DHT22;1938;50.812;7.738;2024-03-17T00:30:09;4.30;1.00
3846;DHT22;1938;50.812;7.738;2024-03-17T00:32:39;4.20;1.00
3846;DHT22;1938;50.812;7.738;2024-03-17T00:35:09;4.10;1.00
3846;DHT22;1938;50.812;7.738;2024-03-17T00:37:36;4.10;1.00
3846;DHT22;1938;50.812;7.738;2024-03-17T00:40:03;4.10;1.00
3846;DHT22;1938;50.812;7.738;2024-03-17T00:42:29;4.00;1.00
3846;DHT22;1938;50.812;7.738;2024-03-17T00:44:55;4.00;1.00
3846;DHT22;1938;50.812;7.738;2024-03-17T00:47:21;4.00;1.00
3846;DHT22;1938;50.812;7.738;2024-03-17T00:49:46;4.00;1.00
3846;DHT22;1938;50.812;7.738;2024-03-17T00:52:15;4.00;1.00
3846;DHT22;1938;50.812;7.738;2024-03-17T00:54:41;3.90;1.00
3846;DHT22;1938;50.812;7.738;2024-03-17T00:57:07;4.00;1.00
3846;DHT22;1938;50.812;7.738;2024-03-17T00:59:32;3.90;1.00
3846;DHT22;1938;50.812;7.738;2024-03-17T01:01:58;3.80;11.90
3846;DHT22;1938;50.812;7.738;2024-03-17T01:04:25;3.80;23.70
3846;DHT22;1938;50.812;7.738;2024-03-17T01:06:50;3.90;11.10
3846;DHT22;1938;50.812;7.738;2024-03-17T01:09:16;3.90;1.00
3846;DHT22;1938;50.812;7.738;2024-03-17T01:11:42;3.90;1.00
3846;DHT22;1938;50.812;7.738;2024-03-17T01:14:08;3.80;1.00
3846;DHT22;1938;50.812;7.738;2024-03-17T01:16:34;3.80;1.00
3846;DHT22;1938;50.812;7.738;2024-03-17T01:18:59;3.80;1.00
3846;DHT22;1938;50.812;7.738;2024-03-17T01:21:25;3.70;1.00
3846;DHT22;1938;50.812;7.738;2024-03-17T01:23:50;3.60;30.30
3846;DHT22;1938;50.812;7.738;2024-03-17T01:26:16;3.60;74.50
3846;DHT22;1938;50.812;7.738;2024-03-17T01:28:42;3.60;86.80
3846;DHT22;1938;50.812;7.738;2024-03-17T01:31:09;3.60;54.10
3846;DHT22;1938;50.812;7.738;2024-03-17T01:33:35;3.60;87.80
3846;DHT22;1938;50.812;7.738;2024-03-17T01:36:00;3.50;91.10
3846;DHT22;1938;50.812;7.738;2024-03-17T01:38:26;3.40;99.90
3846;DHT22;1938;50.812;7.738;2024-03-17T01:40:51;3.40;99.90
3846;DHT22;1938;50.812;7.738;2024-03-17T01:43:17;3.40;99.90
3846;DHT22;1938;50.812;7.738;2024-03-17T01:45:43;3.30;99.90
3846;DHT22;1938;50.812;7.738;2024-03-17T01:48:13;3.40;99.90
3846;DHT22;1938;50.812;7.738;2024-03-17T01:50:41;3.40;99.90
3846;DHT22;1938;50.812;7.738;2024-03-17T01:53:07;3.40;99.90
3846;DHT22;1938;50.812;7.738;2024-03-17T01:55:37;3.40;99.90
3846;DHT22;1938;50.812;7.738;2024-03-17T01:58:04;3.20;99.90
3846;DHT22;1938;50.812;7.738;2024-03-17T02:00:29;3.20;99.90
3846;DHT22;1938;50.812;7.738;2024-03-17T02:02:57;3.20;99.90
3846;DHT22;1938;50.812;7.738;2024-03-17T02:05:22;3.10;99.90
3846;DHT22;1938;50.812;7.738;2024-03-17T02:07:48;3.20;99.90
3846;DHT22;1938;50.812;7.738;2024-03-17T02:10:13;3.00;99.90
3846;DHT22;1938;50.812;7.738;2024-03-17T02:12:40;3.00;99.90
3846;DHT22;1938;50.812;7.738;2024-03-17T02:15:06;3.00;99.90
3846;DHT22;1938;50.812;7.738;2024-03-17T02:17:32;2.90;99.90
3846;DHT22;1938;50.812;7.738;2024-03-17T02:19:58;2.90;99.90
3846;DHT22;1938;50.812;7.738;2024-03-17T02:22:24;2.90;99.90
3846;DHT22;1938;50.812;7.738;2024-03-17T02:24:50;2.80;99.90
3846;DHT22;1938;50.812;7.738;2024-03-17T02:27:16;2.80;99.90
3846;DHT22;1938;50.812;7.738;2024-03-17T02:29:41;2.60;99.90
3846;DHT22;1938;50.812;7.738;2024-03-17T02:32:08;2.70;99.90
3846;DHT22;1938;50.812;7.738;2024-03-17T02:34:34;2.70;99.90
3846;DHT22;1938;50.812;7.738;2024-03-17T02:37:00;2.70;99.90
3846;DHT22;1938;50.812;7.738;2024-03-17T02:39:26;2.70;99.90
3846;DHT22;1938;50.812;7.738;2024-03-17T02:42:02;2.70;99.90
3846;DHT22;1938;50.812;7.738;2024-03-17T02:44:29;2.60;99.90
3846;DHT22;1938;50.812;7.738;2024-03-17T02:46:56;2.60;99.90
3846;DHT22;1938;50.812;7.738;2024-03-17T02:49:23;2.50;99.90
3846;DHT22;1938;50.812;7.738;2024-03-17T02:51:48;2.60;99.90
3846;DHT22;1938;50.812;7.738;2024-03-17T02:54:14;2.50;99.90
3846;DHT22;1938;50.812;7.738;2024-03-17T02:56:41;2.50;99.90
3846;DHT22;1938;50.812;7.738;2024-03-17T02:59:07;2.40;99.90
3846;DHT22;1938;50.812;7.738;2024-03-17T03:01:32;2.40;99.90
3846;DHT22;1938;50.812;7.738;2024-03-17T03:03:58;2.50;99.90
3846;DHT22;1938;50.812;7.738;2024-03-17T03:06:24;2.40;99.90
3846;DHT22;1938;50.812;7.738;2024-03-17T03:08:50;2.40;99.90
3846;DHT22;1938;50.812;7.738;2024-03-17T03:11:17;2.50;99.90
3846;DHT22;1938;50.812;7.738;2024-03-17T03:13:43;2.50;99.90
3846;DHT22;1938;50.812;7.738;2024-03-17T03:16:10;2.50;99.90
3846;DHT22;1938;50.812;7.738;2024-03-17T03:18:37;2.50;99.90
3846;DHT22;1938;50.812;7.738;2024-03-17T03:21:04;2.50;99.90
3846;DHT22;1938;50.812;7.738;2024-03-17T03:23:31;2.50;99.90
3846;DHT22;1938;50.812;7.738;2024-03-17T03:26:02;2.50;99.90
3846;DHT22;1938;50.812;7.738;2024-03-17T03:28:30;2.50;99.90
3846;DHT22;1938;50.812;7.738;2024-03-17T03:30:55;2.50;99.90
3846;DHT22;1938;50.812;7.738;2024-03-17T03:33:21;2.60;99.90
3846;DHT22;1938;50.812;7.738;2024-03-17T03:35:47;2.50;99.90
3846;DHT22;1938;50.812;7.738;2024-03-17T03:38:15;2.40;99.90
3846;DHT22;1938;50.812;7.738;2024-03-17T03:40:43;2.40;99.90
3846;DHT22;1938;50.812;7.738;2024-03-17T03:43:10;2.40;99.90
3846;DHT22;1938;50.812;7.738;2024-03-17T03:45:36;2.30;99.90
3846;DHT22;1938;50.812;7.738;2024-03-17T03:48:03;2.30;99.90
3846;DHT22;1938;50.812;7.738;2024-03-17T03:50:30;2.30;99.90
3846;DHT22;1938;50.812;7.738;2024-03-17T03:52:56;2.30;99.90
3846;DHT22;1938;50.812;7.738;2024-03-17T03:55:21;2.40;99.90
3846;DHT22;1938;50.812;7.738;2024-03-17T03:57:47;2.20;99.90
3846;DHT22;1938;50.812;7.738;2024-03-17T04:00:17;2.30;99.90
3846;DHT22;1938;50.812;7.738;2024-03-17T04:02:47;2.20;99.90
3846;DHT22;1938;50.812;7.738;2024-03-17T04:05:13;2.20;99.90
3846;DHT22;1938;50.812;7.738;2024-03-17T04:07:39;2.10;99.90
3846;DHT22;1938;50.812;7.738;2024-03-17T04:10:06;2.10;99.90
3846;DHT22;1938;50.812;7.738;2024-03-17T04:12:32;2.10;99.90
3846;DHT22;1938;50.812;7.738;2024-03-17T04:14:58;2.00;99.90
3846;DHT22;1938;50.812;7.738;2024-03-17T04:17:24;1.90;99.90
3846;DHT22;1938;50.812;7.738;2024-03-17T04:19:51;1.90;99.90
3846;DHT22;1938;50.812;7.738;2024-03-17T04:22:17;1.80;99.90
3846;DHT22;1938;50.812;7.738;2024-03-17T04:24:44;1.70;99.90
3846;DHT22;1938;50.812;7.738;2024-03-17T04:27:10;1.60;99.90
3846;DHT22;1938;50.812;7.738;2024-03-17T04:29:35;1.60;99.90
3846;DHT22;1938;50.812;7.738;2024-03-17T04:32:02;1.60;99.90
3846;DHT22;1938;50.812;7.738;2024-03-17T04:34:28;1.60;99.90
3846;DHT22;1938;50.812;7.738;2024-03-17T04:36:53;1.60;99.90
3846;DHT22;1938;50.812;7.738;2024-03-17T04:39:19;1.60;99.90
3846;DHT22;1938;50.812;7.738;2024-03-17T04:41:47;1.60;99.90
3846;DHT22;1938;50.812;7.738;2024-03-17T04:44:13;1.60;99.90
3846;DHT22;1938;50.812;7.738;2024-03-17T04:46:39;1.60;99.90
3846;DHT22;1938;50.812;7.738;2024-03-17T04:49:04;1.60;99.90
3846;DHT22;1938;50.812;7.738;2024-03-17T04:51:30;1.60;99.90
3846;DHT22;1938;50.812;7.738;2024-03-17T04:53:58;1.50;99.90
3846;DHT22;1938;50.812;7.738;2024-03-17T04:56:24;1.50;99.90
3846;DHT22;1938;50.812;7.738;2024-03-17T04:58:49;1.50;99.90
3846;DHT22;1938;50.812;7.738;2024-03-17T05:01:15;1.50;99.90
3846;DHT22;1938;50.812;7.738;2024-03-17T05:03:40;1.50;99.90
3846;DHT22;1938;50.812;7.738;2024-03-17T05:06:06;1.50;99.90
3846;DHT22;1938;50.812;7.738;2024-03-17T05:08:33;1.50;99.90
3846;DHT22;1938;50.812;7.738;2024-03-17T05:11:00;1.40;99.90
3846;DHT22;1938;50.812;7.738;2024-03-17T05:13:27;1.30;99.90
3846;DHT22;1938;50.812;7.738;2024-03-17T05:15:53;1.20;99.90
3846;DHT22;1938;50.812;7.738;2024-03-17T05:18:19;1.30;99.90
3846;DHT22;1938;50.812;7.738;2024-03-17T05:20:46;1.20;99.90
3846;DHT22;1938;50.812;7.738;2024-03-17T05:23:13;0.90;99.90
3846;DHT22;1938;50.812;7.738;2024-03-17T05:25:39;0.60;99.90
3846;DHT22;1938;50.812;7.738;2024-03-17T05:28:04;0.10;99.90
3846;DHT22;1938;50.812;7.738;2024-03-17T05:30:31;-0.20;99.90
3846;DHT22;1938;50.812;7.738;2024-03-17T05:32:57;0.30;99.90
3846;DHT22;1938;50.812;7.738;2024-03-17T05:35:22;0.80;99.90
3846;DHT22;1938;50.812;7.738;2024-03-17T05:37:49;1.10;99.90
3846;DHT22;1938;50.812;7.738;2024-03-17T05:40:14;1.10;99.90
3846;DHT22;1938;50.812;7.738;2024-03-17T05:42:43;1.10;99.90
3846;DHT22;1938;50.812;7.738;2024-03-17T05:45:09;1.20;99.90
3846;DHT22;1938;50.812;7.738;2024-03-17T05:47:37;1.20;99.90
3846;DHT22;1938;50.812;7.738;2024-03-17T05:50:04;1.20;99.90
3846;DHT22;1938;50.812;7.738;2024-03-17T05:52:30;1.20;99.90
3846;DHT22;1938;50.812;7.738;2024-03-17T05:54:55;1.20;99.90
3846;DHT22;1938;50.812;7.738;2024-03-17T05:57:21;1.30;99.90
3846;DHT22;1938;50.812;7.738;2024-03-17T05:59:48;1.30;99.90
3846;DHT22;1938;50.812;7.738;2024-03-17T06:02:13;1.30;99.90
3846;DHT22;1938;50.812;7.738;2024-03-17T06:04:40;1.40;99.90
3846;DHT22;1938;50.812;7.738;2024-03-17T06:07:06;1.40;99.90
3846;DHT22;1938;50.812;7.738;2024-03-17T06:09:32;1.50;99.90
3846;DHT22;1938;50.812;7.738;2024-03-17T06:11:57;1.40;99.90
3846;DHT22;1938;50.812;7.738;2024-03-17T06:14:23;1.40;99.90
3846;DHT22;1938;50.812;7.738;2024-03-17T06:16:48;1.50;99.90
3846;DHT22;1938;50.812;7.738;2024-03-17T06:19:14;1.70;99.90
3846;DHT22;1938;50.812;7.738;2024-03-17T06:21:40;2.20;99.90
3846;DHT22;1938;50.812;7.738;2024-03-17T06:24:06;2.30;99.90
3846;DHT22;1938;50.812;7.738;2024-03-17T06:26:32;2.50;99.90
3846;DHT22;1938;50.812;7.738;2024-03-17T06:29:02;2.60;1.00
3846;DHT22;1938;50.812;7.738;2024-03-17T06:31:28;2.50;1.00
3846;DHT22;1938;50.812;7.738;2024-03-17T06:33:53;2.40;1.00
3846;DHT22;1938;50.812;7.738;2024-03-17T06:36:19;2.20;1.00
3846;DHT22;1938;50.812;7.738;2024-03-17T06:38:44;2.10;27.60
3846;DHT22;1938;50.812;7.738;2024-03-17T06:41:10;1.90;97.30
3846;DHT22;1938;50.812;7.738;2024-03-17T06:43:36;2.00;99.90
3846;DHT22;1938;50.812;7.738;2024-03-17T06:46:02;2.50;99.90
3846;DHT22;1938;50.812;7.738;2024-03-17T06:48:28;2.10;48.60
3846;DHT22;1938;50.812;7.738;2024-03-17T06:50:54;2.10;85.00
3846;DHT22;1938;50.812;7.738;2024-03-17T06:53:21;2.20;99.90
3846;DHT22;1938;50.812;7.738;2024-03-17T06:55:57;2.40;99.90
3846;DHT22;1938;50.812;7.738;2024-03-17T06:58:23;2.60;31.40
3846;DHT22;1938;50.812;7.738;2024-03-17T07:01:08;2.60;1.00
3846;DHT22;1938;50.812;7.738;2024-03-17T07:03:35;2.70;1.00
3846;DHT22;1938;50.812;7.738;2024-03-17T07:06:01;2.80;99.90
3846;DHT22;1938;50.812;7.738;2024-03-17T07:08:30;2.90;99.90
3846;DHT22;1938;50.812;7.738;2024-03-17T07:11:00;3.00;99.90
3846;DHT22;1938;50.812;7.738;2024-03-17T07:13:29;3.20;99.90
3846;DHT22;1938;50.812;7.738;2024-03-17T07:15:55;3.30;99.90
3846;DHT22;1938;50.812;7.738;2024-03-17T07:18:20;3.40;18.40
3846;DHT22;1938;50.812;7.738;2024-03-17T07:20:46;3.60;1.00
3846;DHT22;1938;50.812;7.738;2024-03-17T07:23:14;3.70;1.00
3846;DHT22;1938;50.812;7.738;2024-03-17T07:25:40;3.90;99.90
3846;DHT22;1938;50.812;7.738;2024-03-17T07:28:06;4.20;45.60
3846;DHT22;1938;50.812;7.738;2024-03-17T07:30:32;4.50;99.90
3846;DHT22;1938;50.812;7.738;2024-03-17T07:32:58;5.00;99.90
3846;DHT22;1938;50.812;7.738;2024-03-17T07:35:24;5.10;99.90
3846;DHT22;1938;50.812;7.738;2024-03-17T07:37:49;5.40;99.90
3846;DHT22;1938;50.812;7.738;2024-03-17T07:40:15;5.90;99.90
3846;DHT22;1938;50.812;7.738;2024-03-17T07:42:41;6.20;1.00
3846;DHT22;1938;50.812;7.738;2024-03-17T07:45:07;6.30;99.90
3846;DHT22;1938;50.812;7.738;2024-03-17T07:47:33;6.40;99.90
3846;DHT22;1938;50.812;7.738;2024-03-17T07:50:04;6.90;99.90
3846;DHT22;1938;50.812;7.738;2024-03-17T07:52:31;7.30;2.80
3846;DHT22;1938;50.812;7.738;2024-03-17T07:54:57;7.70;1.00
3846;DHT22;1938;50.812;7.738;2024-03-17T07:57:23;8.70;99.90
3846;DHT22;1938;50.812;7.738;2024-03-17T07:59:51;9.50;99.90
3846;DHT22;1938;50.812;7.738;2024-03-17T08:02:17;10.40;99.90
3846;DHT22;1938;50.812;7.738;2024-03-17T08:04:43;12.10;99.90
3846;DHT22;1938;50.812;7.738;2024-03-17T08:07:10;13.00;99.90
3846;DHT22;1938;50.812;7.738;2024-03-17T08:09:36;14.10;89.80
3846;DHT22;1938;50.812;7.738;2024-03-17T08:12:02;15.10;62.80
3846;DHT22;1938;50.812;7.738;2024-03-17T08:14:30;15.80;43.80
3846;DHT22;1938;50.812;7.738;2024-03-17T08:16:55;17.50;58.50
3846;DHT22;1938;50.812;7.738;2024-03-17T08:19:21;18.90;67.80
3846;DHT22;1938;50.812;7.738;2024-03-17T08:21:47;20.00;59.10
3846;DHT22;1938;50.812;7.738;2024-03-17T08:24:13;20.30;43.20
3846;DHT22;1938;50.812;7.738;2024-03-17T08:26:39;20.50;21.70
3846;DHT22;1938;50.812;7.738;2024-03-17T08:29:06;20.90;10.30
3846;DHT22;1938;50.812;7.738;2024-03-17T08:31:32;20.50;1.00
3846;DHT22;1938;50.812;7.738;2024-03-17T08:33:57;21.40;1.00
3846;DHT22;1938;50.812;7.738;2024-03-17T08:36:23;22.40;1.00
3846;DHT22;1938;50.812;7.738;2024-03-17T08:38:50;23.00;1.00
3846;DHT22;1938;50.812;7.738;2024-03-17T08:41:16;23.70;1.00
3846;DHT22;1938;50.812;7.738;2024-03-17T08:43:42;24.10;1.00
3846;DHT22;1938;50.812;7.738;2024-03-17T08:46:09;24.30;1.00
3846;DHT22;1938;50.812;7.738;2024-03-17T08:48:37;24.90;1.00
3846;DHT22;1938;50.812;7.738;2024-03-17T08:51:04;25.60;1.00
3846;DHT22;1938;50.812;7.738;2024-03-17T08:53:30;25.90;1.00
3846;DHT22;1938;50.812;7.738;2024-03-17T08:55:57;25.80;1.00
3846;DHT22;1938;50.812;7.738;2024-03-17T08:58:23;25.80;1.00
3846;DHT22;1938;50.812;7.738;2024-03-17T09:00:50;25.70;99.90
3846;DHT22;1938;50.812;7.738;2024-03-17T09:03:16;25.50;99.90
3846;DHT22;1938;50.812;7.738;2024-03-17T09:05:43;25.00;99.90
3846;DHT22;1938;50.812;7.738;2024-03-17T09:08:18;24.80;99.90
3846;DHT22;1938;50.812;7.738;2024-03-17T09:10:48;24.00;99.90
3846;DHT22;1938;50.812;7.738;2024-03-17T09:13:17;22.90;99.90
3846;DHT22;1938;50.812;7.738;2024-03-17T09:18:18;20.90;99.90
3846;DHT22;1938;50.812;7.738;2024-03-17T09:20:45;20.20;99.90
3846;DHT22;1938;50.812;7.738;2024-03-17T09:23:11;19.60;99.90
3846;DHT22;1938;50.812;7.738;2024-03-17T09:25:36;19.30;99.90
3846;DHT22;1938;50.812;7.738;2024-03-17T09:28:02;18.80;95.20
3846;DHT22;1938;50.812;7.738;2024-03-17T09:30:28;18.70;90.30
3846;DHT22;1938;50.812;7.738;2024-03-17T09:32:53;18.50;74.00
3846;DHT22;1938;50.812;7.738;2024-03-17T09:35:19;18.20;57.40
3846;DHT22;1938;50.812;7.738;2024-03-17T09:37:44;17.80;46.40
3846;DHT22;1938;50.812;7.738;2024-03-17T09:40:14;17.50;35.90
3846;DHT22;1938;50.812;7.738;2024-03-17T09:42:41;16.90;25.10
3846;DHT22;1938;50.812;7.738;2024-03-17T09:45:10;16.70;20.00
3846;DHT22;1938;50.812;7.738;2024-03-17T09:47:36;16.50;13.00
3846;DHT22;1938;50.812;7.738;2024-03-17T09:50:02;16.30;8.70
3846;DHT22;1938;50.812;7.738;2024-03-17T09:52:28;16.10;3.90
3846;DHT22;1938;50.812;7.738;2024-03-17T09:54:59;15.80;1.00
3846;DHT22;1938;50.812;7.738;2024-03-17T09:57:26;15.80;1.00
3846;DHT22;1938;50.812;7.738;2024-03-17T09:59:53;15.60;1.00
3846;DHT22;1938;50.812;7.738;2024-03-17T10:02:22;15.70;1.00
3846;DHT22;1938;50.812;7.738;2024-03-17T10:04:48;15.60;1.00
3846;DHT22;1938;50.812;7.738;2024-03-17T10:07:14;15.30;1.00
3846;DHT22;1938;50.812;7.738;2024-03-17T10:09:41;15.50;1.00
3846;DHT22;1938;50.812;7.738;2024-03-17T10:12:25;15.50;1.00
3846;DHT22;1938;50.812;7.738;2024-03-17T10:15:01;15.70;1.00
3846;DHT22;1938;50.812;7.738;2024-03-17T10:17:33;15.70;1.00
3846;DHT22;1938;50.812;7.738;2024-03-17T10:22:37;15.60;1.00
3846;DHT22;1938;50.812;7.738;2024-03-17T10:25:03;15.50;1.00
3846;DHT22;1938;50.812;7.738;2024-03-17T10:27:29;15.40;1.00
3846;DHT22;1938;50.812;7.738;2024-03-17T10:29:54;15.40;1.00
3846;DHT22;1938;50.812;7.738;2024-03-17T10:32:21;15.40;1.00
3846;DHT22;1938;50.812;7.738;2024-03-17T10:34:49;15.40;1.00
3846;DHT22;1938;50.812;7.738;2024-03-17T10:37:17;15.60;1.00
3846;DHT22;1938;50.812;7.738;2024-03-17T10:39:46;15.70;1.00
3846;DHT22;1938;50.812;7.738;2024-03-17T10:42:24;15.50;1.00
3846;DHT22;1938;50.812;7.738;2024-03-17T10:44:50;15.60;1.00
3846;DHT22;1938;50.812;7.738;2024-03-17T10:47:26;15.50;1.00
3846;DHT22;1938;50.812;7.738;2024-03-17T10:49:53;15.50;1.00
3846;DHT22;1938;50.812;7.738;2024-03-17T10:52:20;15.50;1.00
3846;DHT22;1938;50.812;7.738;2024-03-17T10:54:50;15.50;1.00
3846;DHT22;1938;50.812;7.738;2024-03-17T10:59:54;15.40;1.00
3846;DHT22;1938;50.812;7.738;2024-03-17T11:02:24;15.40;1.00
3846;DHT22;1938;50.812;7.738;2024-03-17T11:04:55;15.30;1.00
3846;DHT22;1938;50.812;7.738;2024-03-17T11:07:22;15.20;1.00
3846;DHT22;1938;50.812;7.738;2024-03-17T11:09:48;15.20;1.00
3846;DHT22;1938;50.812;7.738;2024-03-17T11:12:54;15.30;1.00
3846;DHT22;1938;50.812;7.738;2024-03-17T11:20:35;15.40;1.00
3846;DHT22;1938;50.812;7.738;2024-03-17T11:23:01;15.40;1.00
3846;DHT22;1938;50.812;7.738;2024-03-17T11:27:53;15.30;1.00
3846;DHT22;1938;50.812;7.738;2024-03-17T11:38:56;15.20;1.00
3846;DHT22;1938;50.812;7.738;2024-03-17T11:46:44;15.60;1.00
3846;DHT22;1938;50.812;7.738;2024-03-17T11:49:33;15.70;1.00
3846;DHT22;1938;50.812;7.738;2024-03-17T11:52:03;15.80;1.00
3846;DHT22;1938;50.812;7.738;2024-03-17T11:54:31;15.80;1.00
3846;DHT22;1938;50.812;7.738;2024-03-17T11:57:01;15.60;1.00
3846;DHT22;1938;50.812;7.738;2024-03-17T11:59:28;15.60;1.00
3846;DHT22;1938;50.812;7.738;2024-03-17T12:01:54;15.60;1.00
3846;DHT22;1938;50.812;7.738;2024-03-17T12:04:21;15.70;1.00
3846;DHT22;1938;50.812;7.738;2024-03-17T12:06:49;15.70;1.00
3846;DHT22;1938;50.812;7.738;2024-03-17T12:11:57;15.60;1.00
3846;DHT22;1938;50.812;7.738;2024-03-17T12:14:23;15.50;1.00
3846;DHT22;1938;50.812;7.738;2024-03-17T12:17:01;15.60;1.00
3846;DHT22;1938;50.812;7.738;2024-03-17T12:19:28;15.70;1.00
3846;DHT22;1938;50.812;7.738;2024-03-17T12:21:55;15.70;1.00
3846;DHT22;1938;50.812;7.738;2024-03-17T12:24:26;15.70;1.00
3846;DHT22;1938;50.812;7.738;2024-03-17T12:26:53;15.80;1.00
3846;DHT22;1938;50.812;7.738;2024-03-17T12:29:33;15.80;1.00
3846;DHT22;1938;50.812;7.738;2024-03-17T12:34:37;16.10;1.00
3846;DHT22;1938;50.812;7.738;2024-03-17T12:37:03;16.20;1.00
3846;DHT22;1938;50.812;7.738;2024-03-17T12:39:33;16.20;1.00
3846;DHT22;1938;50.812;7.738;2024-03-17T12:44:28;15.60;1.00
3846;DHT22;1938;50.812;7.738;2024-03-17T12:47:02;15.50;1.00
3846;DHT22;1938;50.812;7.738;2024-03-17T12:49:29;15.50;1.00
3846;DHT22;1938;50.812;7.738;2024-03-17T12:51:55;15.40;1.00
3846;DHT22;1938;50.812;7.738;2024-03-17T12:54:23;15.50;1.00
3846;DHT22;1938;50.812;7.738;2024-03-17T12:56:50;15.50;1.00
3846;DHT22;1938;50.812;7.738;2024-03-17T12:59:41;15.40;1.00
3846;DHT22;1938;50.812;7.738;2024-03-17T13:02:27;15.30;1.00
3846;DHT22;1938;50.812;7.738;2024-03-17T13:07:32;15.50;1.00
3846;DHT22;1938;50.812;7.738;2024-03-17T13:09:58;15.40;1.00
3846;DHT22;1938;50.812;7.738;2024-03-17T13:12:24;15.10;1.00
3846;DHT22;1938;50.812;7.738;2024-03-17T13:14:50;15.20;1.00
3846;DHT22;1938;50.812;7.738;2024-03-17T13:17:15;15.30;1.00
3846;DHT22;1938;50.812;7.738;2024-03-17T13:19:45;15.30;1.00
3846;DHT22;1938;50.812;7.738;2024-03-17T13:22:11;15.30;1.00
3846;DHT22;1938;50.812;7.738;2024-03-17T13:24:37;14.70;1.00
3846;DHT22;1938;50.812;7.738;2024-03-17T13:27:02;14.40;1.00
3846;DHT22;1938;50.812;7.738;2024-03-17T13:29:34;14.00;1.00
3846;DHT22;1938;50.812;7.738;2024-03-17T13:32:04;14.10;1.00
3846;DHT22;1938;50.812;7.738;2024-03-17T13:34:30;14.40;1.00
3846;DHT22;1938;50.812;7.738;2024-03-17T13:36:57;14.60;1.00
3846;DHT22;1938;50.812;7.738;2024-03-17T13:39:22;14.80;1.00
3846;DHT22;1938;50.812;7.738;2024-03-17T13:41:54;15.00;1.00
3846;DHT22;1938;50.812;7.738;2024-03-17T13:44:22;15.20;1.00
3846;DHT22;1938;50.812;7.738;2024-03-17T13:46:48;15.20;1.00
3846;DHT22;1938;50.812;7.738;2024-03-17T13:49:13;15.30;1.00
3846;DHT22;1938;50.812;7.738;2024-03-17T13:51:39;15.40;1.00
3846;DHT22;1938;50.812;7.738;2024-03-17T13:54:04;15.50;1.00
3846;DHT22;1938;50.812;7.738;2024-03-17T13:56:30;15.70;1.00
3846;DHT22;1938;50.812;7.738;2024-03-17T13:58:55;15.70;1.00
3846;DHT22;1938;50.812;7.738;2024-03-17T14:01:21;15.70;1.00
3846;DHT22;1938;50.812;7.738;2024-03-17T14:03:46;15.70;1.00
3846;DHT22;1938;50.812;7.738;2024-03-17T14:06:12;15.70;1.00
3846;DHT22;1938;50.812;7.738;2024-03-17T14:08:38;15.80;1.00
3846;DHT22;1938;50.812;7.738;2024-03-17T14:11:03;15.80;1.00
3846;DHT22;1938;50.812;7.738;2024-03-17T14:13:31;15.80;1.00
3846;DHT22;1938;50.812;7.738;2024-03-17T14:15:57;15.70;1.00
3846;DHT22;1938;50.812;7.738;2024-03-17T14:18:23;15.70;1.00
3846;DHT22;1938;50.812;7.738;2024-03-17T14:20:48;15.70;1.00
3846;DHT22;1938;50.812;7.738;2024-03-17T14:23:15;15.70;1.00
3846;DHT22;1938;50.812;7.738;2024-03-17T14:25:41;15.60;1.00
3846;DHT22;1938;50.812;7.738;2024-03-17T14:28:06;15.60;1.00
3846;DHT22;1938;50.812;7.738;2024-03-17T14:30:32;15.60;1.00
3846;DHT22;1938;50.812;7.738;2024-03-17T14:32:58;15.50;1.00
3846;DHT22;1938;50.812;7.738;2024-03-17T14:35:25;15.40;1.00
3846;DHT22;1938;50.812;7.738;2024-03-17T14:37:53;15.40;1.00
3846;DHT22;1938;50.812;7.738;2024-03-17T14:40:19;15.30;1.00
3846;DHT22;1938;50.812;7.738;2024-03-17T14:42:53;15.20;1.00
3846;DHT22;1938;50.812;7.738;2024-03-17T14:45:20;15.10;99.90
3846;DHT22;1938;50.812;7.738;2024-03-17T14:47:49;15.10;99.90
3846;DHT22;1938;50.812;7.738;2024-03-17T14:50:14;15.00;99.90
3846;DHT22;1938;50.812;7.738;2024-03-17T14:52:42;15.00;99.90
3846;DHT22;1938;50.812;7.738;2024-03-17T14:55:08;15.00;99.90
3846;DHT22;1938;50.812;7.738;2024-03-17T14:57:38;15.00;99.90
3846;DHT22;1938;50.812;7.738;2024-03-17T15:00:06;14.90;99.90
3846;DHT22;1938;50.812;7.738;2024-03-17T15:02:39;14.90;99.90
3846;DHT22;1938;50.812;7.738;2024-03-17T15:05:06;14.80;99.90
3846;DHT22;1938;50.812;7.738;2024-03-17T15:07:32;14.80;99.90
3846;DHT22;1938;50.812;7.738;2024-03-17T15:09:58;14.70;99.90
3846;DHT22;1938;50.812;7.738;2024-03-17T15:12:24;14.70;99.90
3846;DHT22;1938;50.812;7.738;2024-03-17T15:14:49;14.60;99.90
3846;DHT22;1938;50.812;7.738;2024-03-17T15:17:15;14.50;99.90
3846;DHT22;1938;50.812;7.738;2024-03-17T15:19:41;14.40;99.90
3846;DHT22;1938;50.812;7.738;2024-03-17T15:22:08;14.40;99.90
3846;DHT22;1938;50.812;7.738;2024-03-17T15:24:34;14.30;99.90
3846;DHT22;1938;50.812;7.738;2024-03-17T15:26:59;14.20;99.90
3846;DHT22;1938;50.812;7.738;2024-03-17T15:29:25;14.10;99.90
3846;DHT22;1938;50.812;7.738;2024-03-17T15:31:51;14.10;99.90
3846;DHT22;1938;50.812;7.738;2024-03-17T15:34:17;13.90;99.90
3846;DHT22;1938;50.812;7.738;2024-03-17T15:36:43;13.90;99.90
3846;DHT22;1938;50.812;7.738;2024-03-17T15:39:09;13.90;99.90
3846;DHT22;1938;50.812;7.738;2024-03-17T15:41:38;13.90;99.90
3846;DHT22;1938;50.812;7.738;2024-03-17T15:44:04;13.70;99.90
3846;DHT22;1938;50.812;7.738;2024-03-17T15:46:30;13.70;99.90
3846;DHT22;1938;50.812;7.738;2024-03-17T15:48:55;13.80;99.90
3846;DHT22;1938;50.812;7.738;2024-03-17T15:51:23;13.70;99.90
3846;DHT22;1938;50.812;7.738;2024-03-17T15:53:48;13.70;99.90
3846;DHT22;1938;50.812;7.738;2024-03-17T15:56:15;13.70;99.90
3846;DHT22;1938;50.812;7.738;2024-03-17T15:58:41;13.70;99.90
3846;DHT22;1938;50.812;7.738;2024-03-17T16:01:07;13.70;99.90
3846;DHT22;1938;50.812;7.738;2024-03-17T16:03:36;13.80;99.90
3846;DHT22;1938;50.812;7.738;2024-03-17T16:06:13;13.70;99.90
3846;DHT22;1938;50.812;7.738;2024-03-17T16:08:41;13.70;99.90
3846;DHT22;1938;50.812;7.738;2024-03-17T16:11:09;13.80;99.90
3846;DHT22;1938;50.812;7.738;2024-03-17T16:13:37;13.90;99.90
3846;DHT22;1938;50.812;7.738;2024-03-17T16:16:06;13.90;99.90
3846;DHT22;1938;50.812;7.738;2024-03-17T16:18:32;13.80;99.90
3846;DHT22;1938;50.812;7.738;2024-03-17T16:21:16;13.80;99.90
3846;DHT22;1938;50.812;7.738;2024-03-17T16:23:58;13.80;99.90
3846;DHT22;1938;50.812;7.738;2024-03-17T16:26:25;13.80;99.90
3846;DHT22;1938;50.812;7.738;2024-03-17T16:28:51;13.70;99.90
3846;DHT22;1938;50.812;7.738;2024-03-17T16:31:20;13.50;99.90
3846;DHT22;1938;50.812;7.738;2024-03-17T16:33:47;13.40;99.90
3846;DHT22;1938;50.812;7.738;2024-03-17T16:36:15;13.30;99.90
3846;DHT22;1938;50.812;7.738;2024-03-17T16:38:40;13.30;99.90
3846;DHT22;1938;50.812;7.738;2024-03-17T16:41:06;13.20;99.90
3846;DHT22;1938;50.812;7.738;2024-03-17T16:46:20;13.00;99.90
3846;DHT22;1938;50.812;7.738;2024-03-17T16:48:51;12.90;99.90
3846;DHT22;1938;50.812;7.738;2024-03-17T16:51:16;12.90;99.90
3846;DHT22;1938;50.812;7.738;2024-03-17T16:53:44;12.80;99.90
3846;DHT22;1938;50.812;7.738;2024-03-17T16:56:11;12.70;99.90
3846;DHT22;1938;50.812;7.738;2024-03-17T16:58:37;12.60;99.90